Time;durP1;ratioP1;P1;durP2;ratioP2;P2;SDS_P1;SDS_P2;PMS_P1;PMS_P2;Temp;Humidity;BMP_temperature;BMP_pressure;BME280_temperature;BME280_humidity;BME280_pressure;Samples;Min_cycle;Max_cycle;Signal;HPM_P1;HPM_P2
2023/07/18 00:01:00;;;;;;;8.95;4.38;;;13.70;99.90;;;;;;5031721;28;20075;-45
2023/07/18 00:03:28;;;;;;;11.15;4.20;;;13.70;99.90;;;;;;5031165;28;20473;-44
2023/07/18 00:05:54;;;;;;;8.48;4.28;;;13.70;99.90;;;;;;5047109;28;20080;-44
2023/07/18 00:08:20;;;;;;;10.82;4.47;;;13.70;99.90;;;;;;5029657;28;20022;-44
2023/07/18 00:10:45;;;;;;;8.10;4.13;;;13.70;99.90;;;;;;5038997;28;20075;-45
2023/07/18 00:13:11;;;;;;;15.57;5.18;;;13.70;99.90;;;;;;5030912;28;20100;-45
2023/07/18 00:15:37;;;;;;;9.27;4.53;;;13.70;99.90;;;;;;5031575;28;20079;-45
2023/07/18 00:18:03;;;;;;;10.70;5.25;;;13.70;99.90;;;;;;5031517;28;20103;-46
2023/07/18 00:20:29;;;;;;;9.27;4.70;;;13.70;99.90;;;;;;5046519;28;20036;-48
2023/07/18 00:22:55;;;;;;;9.30;4.57;;;13.60;99.90;;;;;;5031184;28;20026;-49
2023/07/18 00:25:21;;;;;;;9.65;4.90;;;13.60;99.90;;;;;;5031468;28;20390;-51
2023/07/18 00:27:49;;;;;;;6.35;4.53;;;13.60;99.90;;;;;;5031438;28;20025;-48
2023/07/18 00:30:17;;;;;;;9.48;5.15;;;13.60;99.90;;;;;;5031166;28;20153;-47
2023/07/18 00:32:44;;;;;;;9.50;4.38;;;13.60;99.90;;;;;;5045959;28;20013;-47
2023/07/18 00:35:11;;;;;;;10.60;4.65;;;13.60;99.90;;;;;;5031255;28;20025;-47
2023/07/18 00:37:38;;;;;;;7.90;4.63;;;13.60;99.90;;;;;;5031311;28;20429;-47
2023/07/18 00:40:10;;;;;;;11.07;5.45;;;13.60;99.90;;;;;;5031269;28;20021;-47
2023/07/18 00:42:37;;;;;;;8.52;4.80;;;13.50;99.90;;;;;;5030682;28;20486;-51
2023/07/18 00:45:05;;;;;;;5.63;4.28;;;13.60;99.90;;;;;;5031084;28;20038;-50
2023/07/18 00:47:30;;;;;;;9.07;5.25;;;13.60;99.90;;;;;;5030721;28;20034;-49
2023/07/18 00:49:56;;;;;;;9.50;5.25;;;13.60;99.90;;;;;;5030884;28;20025;-47
2023/07/18 00:52:22;;;;;;;9.30;5.03;;;13.60;99.90;;;;;;5030705;28;20018;-48
2023/07/18 00:54:47;;;;;;;8.55;4.88;;;13.50;99.90;;;;;;5029571;28;20067;-50
2023/07/18 00:57:13;;;;;;;11.07;4.75;;;13.50;99.90;;;;;;5030672;28;20057;-49
2023/07/18 00:59:38;;;;;;;8.50;4.97;;;13.50;99.90;;;;;;5046038;28;20064;-48
2023/07/18 01:02:09;;;;;;;13.95;5.18;;;13.50;99.90;;;;;;5030252;28;20139;-48
2023/07/18 01:04:36;;;;;;;11.95;5.60;;;13.50;99.90;;;;;;5037815;28;20025;-48
2023/07/18 01:07:02;;;;;;;8.07;4.78;;;13.50;99.90;;;;;;5030359;28;20044;-47
2023/07/18 01:09:27;;;;;;;11.73;5.25;;;13.50;99.90;;;;;;5030342;28;20397;-47
2023/07/18 01:11:55;;;;;;;8.60;5.30;;;13.50;99.90;;;;;;5030174;28;20060;-48
2023/07/18 01:14:24;;;;;;;9.68;5.00;;;13.40;99.90;;;;;;5045677;28;20394;-48
2023/07/18 01:16:51;;;;;;;7.43;4.30;;;13.40;99.90;;;;;;5030354;28;20475;-47
2023/07/18 01:19:16;;;;;;;11.32;5.38;;;13.40;99.90;;;;;;5029877;28;20022;-50
2023/07/18 01:21:42;;;;;;;11.82;5.90;;;13.40;99.90;;;;;;5029706;28;20048;-50
2023/07/18 01:24:07;;;;;;;10.00;5.15;;;13.40;99.90;;;;;;5030186;28;20029;-48
2023/07/18 01:26:33;;;;;;;10.90;5.90;;;13.30;99.90;;;;;;5028818;28;20044;-48
2023/07/18 01:28:58;;;;;;;8.85;5.60;;;13.30;99.90;;;;;;5029899;28;20057;-47
2023/07/18 01:31:24;;;;;;;10.68;5.45;;;13.30;99.90;;;;;;5030084;28;20033;-47
2023/07/18 01:33:50;;;;;;;8.88;5.35;;;13.30;99.90;;;;;;5030205;28;20386;-48
2023/07/18 01:36:15;;;;;;;10.93;5.38;;;13.30;99.90;;;;;;5029933;28;20017;-47
2023/07/18 01:38:41;;;;;;;16.30;5.93;;;13.30;99.90;;;;;;5029979;28;20101;-47
2023/07/18 01:41:08;;;;;;;11.48;5.18;;;13.40;99.90;;;;;;5029966;28;20393;-46
2023/07/18 01:43:34;;;;;;;12.82;5.53;;;13.30;99.90;;;;;;5029690;28;20025;-47
2023/07/18 01:46:01;;;;;;;9.27;5.63;;;13.30;99.90;;;;;;5029843;28;20021;-47
2023/07/18 01:48:27;;;;;;;10.65;5.50;;;13.30;99.90;;;;;;5044793;28;20492;-46
2023/07/18 01:50:53;;;;;;;13.35;5.85;;;13.30;99.90;;;;;;5029461;28;20093;-46
2023/07/18 01:53:19;;;;;;;13.05;5.85;;;13.30;99.90;;;;;;5028906;28;20458;-48
2023/07/18 01:55:44;;;;;;;10.15;4.95;;;13.30;99.90;;;;;;5009889;28;20314;-46
2023/07/18 01:58:10;;;;;;;11.48;5.55;;;13.30;99.90;;;;;;5009910;28;20038;-46
2023/07/18 02:00:36;;;;;;;10.02;5.22;;;13.30;99.90;;;;;;5009884;28;20044;-47
2023/07/18 02:03:02;;;;;;;8.07;4.68;;;13.30;99.90;;;;;;5009597;28;20474;-48
2023/07/18 02:05:29;;;;;;;10.70;5.78;;;13.30;99.90;;;;;;5009831;28;20026;-47
2023/07/18 02:07:57;;;;;;;14.57;6.18;;;13.30;99.90;;;;;;5024968;28;20033;-48
2023/07/18 02:10:23;;;;;;;12.20;6.07;;;13.30;99.90;;;;;;5009709;28;20021;-48
2023/07/18 02:13:12;;;;;;;9.48;5.72;;;13.20;99.90;;;;;;5008372;28;20018;-48
2023/07/18 02:15:37;;;;;;;10.18;6.13;;;13.20;99.90;;;;;;5007200;28;20044;-48
2023/07/18 02:18:03;;;;;;;9.90;5.15;;;13.10;99.90;;;;;;5007562;28;20021;-47
2023/07/18 02:20:28;;;;;;;11.27;5.50;;;13.10;99.90;;;;;;5022666;28;20072;-47
2023/07/18 02:22:55;;;;;;;11.90;5.57;;;13.10;99.90;;;;;;5007113;28;20418;-50
2023/07/18 02:25:21;;;;;;;10.95;5.80;;;13.10;99.90;;;;;;5007577;28;20041;-47
2023/07/18 02:27:47;;;;;;;10.25;5.50;;;13.10;99.90;;;;;;5007738;28;20025;-47
2023/07/18 02:30:13;;;;;;;7.47;5.22;;;13.00;99.90;;;;;;5007315;28;20026;-47
2023/07/18 02:32:40;;;;;;;8.55;5.90;;;13.00;99.90;;;;;;5005048;28;20029;-47
2023/07/18 02:35:07;;;;;;;9.18;5.32;;;13.00;99.90;;;;;;5007641;28;20443;-47
2023/07/18 02:37:32;;;;;;;13.35;6.72;;;13.00;99.90;;;;;;5022426;28;20022;-47
2023/07/18 02:39:58;;;;;;;13.50;6.40;;;13.00;99.90;;;;;;5007337;28;20037;-47
2023/07/18 02:42:23;;;;;;;10.68;5.57;;;13.00;99.90;;;;;;5022029;28;20026;-47
2023/07/18 02:44:49;;;;;;;12.50;7.05;;;13.00;99.90;;;;;;5007331;28;20475;-49
2023/07/18 02:47:15;;;;;;;9.93;5.55;;;13.00;99.90;;;;;;5007440;28;20478;-47
2023/07/18 02:49:41;;;;;;;10.35;5.57;;;13.00;99.90;;;;;;5000860;28;20038;-47
2023/07/18 02:52:07;;;;;;;13.63;6.50;;;13.00;99.90;;;;;;5006707;28;20038;-47
2023/07/18 02:54:33;;;;;;;11.48;6.50;;;13.00;99.90;;;;;;5007165;28;20034;-49
2023/07/18 02:56:59;;;;;;;16.48;6.18;;;13.00;99.90;;;;;;5007047;28;20129;-47
2023/07/18 02:59:26;;;;;;;10.88;5.95;;;13.00;99.90;;;;;;5007197;28;20394;-47
2023/07/18 03:01:57;;;;;;;15.13;6.63;;;12.90;99.90;;;;;;5001061;28;20663;-47
2023/07/18 03:04:23;;;;;;;15.23;6.28;;;12.90;99.90;;;;;;4999109;28;20109;-47
2023/07/18 03:06:51;;;;;;;13.68;6.57;;;12.90;99.90;;;;;;5000026;28;20037;-47
2023/07/18 03:09:17;;;;;;;13.40;7.03;;;12.90;99.90;;;;;;5000434;28;20027;-48
2023/07/18 03:11:43;;;;;;;10.85;6.60;;;12.90;99.90;;;;;;5015750;28;20090;-49
2023/07/18 03:14:11;;;;;;;12.52;6.32;;;12.90;99.90;;;;;;5003799;28;20519;-48
2023/07/18 03:16:40;;;;;;;13.00;6.25;;;12.90;99.90;;;;;;5000128;28;20052;-47
2023/07/18 03:19:08;;;;;;;11.55;6.10;;;12.90;99.90;;;;;;5000772;28;20378;-47
2023/07/18 03:21:33;;;;;;;20.40;6.55;;;12.90;99.90;;;;;;5000033;28;20030;-47
2023/07/18 03:23:59;;;;;;;10.90;6.47;;;12.90;99.90;;;;;;5004085;28;20139;-46
2023/07/18 03:26:25;;;;;;;11.80;6.97;;;12.90;99.90;;;;;;5003282;28;20396;-47
2023/07/18 03:28:51;;;;;;;13.88;6.40;;;12.90;99.90;;;;;;5006780;28;20483;-47
2023/07/18 03:31:16;;;;;;;12.30;6.13;;;13.00;99.90;;;;;;4996997;28;20068;-47
2023/07/18 03:33:42;;;;;;;12.35;6.15;;;13.00;99.90;;;;;;5015796;28;20018;-48
2023/07/18 03:36:07;;;;;;;9.68;5.95;;;13.00;99.90;;;;;;5022168;28;20021;-47
2023/07/18 03:38:33;;;;;;;12.07;5.97;;;12.90;99.90;;;;;;5006699;28;20376;-47
2023/07/18 03:40:59;;;;;;;13.13;6.72;;;12.90;99.90;;;;;;5006776;28;20037;-48
2023/07/18 03:43:24;;;;;;;12.40;6.32;;;12.90;99.90;;;;;;5006238;28;20022;-47
2023/07/18 03:45:51;;;;;;;13.65;6.45;;;13.00;99.90;;;;;;5009803;28;20029;-48
2023/07/18 03:48:16;;;;;;;11.40;6.75;;;12.90;99.90;;;;;;5009988;28;20053;-47
2023/07/18 03:50:42;;;;;;;16.25;6.68;;;12.90;99.90;;;;;;5009801;28;20057;-47
2023/07/18 03:53:08;;;;;;;16.48;7.88;;;13.00;99.90;;;;;;5006484;28;20150;-47
2023/07/18 03:55:34;;;;;;;16.35;6.82;;;13.00;99.90;;;;;;5003923;28;20022;-50
2023/07/18 03:57:59;;;;;;;14.35;6.40;;;13.10;99.90;;;;;;5003614;28;20461;-47
2023/07/18 04:00:26;;;;;;;16.17;6.88;;;13.10;99.90;;;;;;5009571;28;20034;-46
2023/07/18 04:02:51;;;;;;;18.17;6.40;;;13.10;99.90;;;;;;5024461;28;20025;-46
2023/07/18 04:05:17;;;;;;;10.57;6.03;;;13.20;99.90;;;;;;5009917;28;20038;-48
2023/07/18 04:07:44;;;;;;;10.02;6.40;;;13.20;99.90;;;;;;5009515;28;20034;-46
2023/07/18 04:10:13;;;;;;;14.18;5.90;;;13.20;99.90;;;;;;5009919;28;20206;-47
2023/07/18 04:12:42;;;;;;;14.90;7.03;;;13.30;99.90;;;;;;5009665;28;20018;-50
2023/07/18 04:15:09;;;;;;;16.85;5.93;;;13.30;99.90;;;;;;5024361;28;20552;-47
2023/07/18 04:17:34;;;;;;;14.88;6.25;;;13.40;99.90;;;;;;5008165;28;20034;-51
2023/07/18 04:20:00;;;;;;;13.00;6.25;;;13.40;99.90;;;;;;5009330;28;20387;-48
2023/07/18 04:22:26;;;;;;;9.70;5.68;;;13.40;99.90;;;;;;5006996;28;20030;-46
2023/07/18 04:24:55;;;;;;;16.38;6.70;;;13.50;99.90;;;;;;5009596;28;20515;-49
2023/07/18 04:27:21;;;;;;;12.88;5.32;;;13.60;99.90;;;;;;5010223;28;20088;-49
2023/07/18 04:29:46;;;;;;;13.18;6.32;;;13.60;99.90;;;;;;5009611;28;20415;-47
2023/07/18 04:32:12;;;;;;;11.27;5.88;;;13.70;99.90;;;;;;5008713;28;20073;-47
2023/07/18 04:34:37;;;;;;;10.00;5.47;;;13.70;99.90;;;;;;5007843;28;20029;-48
2023/07/18 04:37:03;;;;;;;14.85;5.85;;;13.80;99.90;;;;;;5007108;28;20427;-47
2023/07/18 04:39:30;;;;;;;13.85;6.15;;;13.80;99.90;;;;;;5009098;28;20033;-46
2023/07/18 04:41:56;;;;;;;10.82;5.40;;;13.90;99.90;;;;;;5001155;28;20618;-51
2023/07/18 04:44:22;;;;;;;12.52;5.50;;;14.00;99.90;;;;;;5010260;28;20046;-47
2023/07/18 04:46:47;;;;;;;9.95;5.20;;;14.00;99.90;;;;;;4999729;28;20030;-47
2023/07/18 04:49:13;;;;;;;12.05;5.00;;;14.00;99.90;;;;;;5001274;28;20038;-49
2023/07/18 04:51:38;;;;;;;11.20;5.03;;;14.00;99.90;;;;;;5020570;28;20022;-47
2023/07/18 04:54:04;;;;;;;10.80;5.57;;;14.10;99.90;;;;;;5008679;28;20538;-47
2023/07/18 04:56:29;;;;;;;8.20;5.35;;;14.10;99.90;;;;;;5008245;28;20291;-47
2023/07/18 04:58:55;;;;;;;8.68;4.45;;;14.10;99.90;;;;;;5008531;28;20053;-46
2023/07/18 05:01:20;;;;;;;9.43;4.80;;;14.20;99.90;;;;;;5008239;28;20092;-48
2023/07/18 05:03:46;;;;;;;11.88;5.32;;;14.30;99.90;;;;;;5008009;28;20078;-50
2023/07/18 05:06:12;;;;;;;6.75;4.43;;;14.30;99.90;;;;;;5007185;28;20073;-47
2023/07/18 05:08:38;;;;;;;11.80;5.63;;;14.30;99.90;;;;;;5007349;28;20036;-47
2023/07/18 05:11:04;;;;;;;9.30;4.68;;;14.40;99.90;;;;;;5008603;28;20497;-47
2023/07/18 05:13:30;;;;;;;8.85;4.40;;;14.50;99.90;;;;;;5008268;28;20113;-47
2023/07/18 05:15:59;;;;;;;7.88;4.90;;;14.60;99.90;;;;;;5008544;28;20072;-49
2023/07/18 05:18:25;;;;;;;10.45;4.63;;;14.60;99.90;;;;;;5008382;28;20029;-47
2023/07/18 05:20:56;;;;;;;19.27;6.15;;;14.70;99.90;;;;;;5008200;28;20486;-47
2023/07/18 05:23:22;;;;;;;7.40;4.88;;;14.70;99.90;;;;;;5023486;28;20026;-48
2023/07/18 05:25:48;;;;;;;8.75;4.70;;;14.70;99.90;;;;;;4999220;28;20460;-47
2023/07/18 05:28:14;;;;;;;8.57;4.82;;;14.80;99.90;;;;;;5019801;28;20045;-47
2023/07/18 05:30:39;;;;;;;10.25;4.80;;;14.80;99.90;;;;;;5007660;28;20088;-48
2023/07/18 05:33:05;;;;;;;13.35;5.38;;;14.90;99.90;;;;;;5007548;28;20045;-48
2023/07/18 05:35:30;;;;;;;8.88;5.22;;;15.00;99.90;;;;;;5007920;28;20036;-50
2023/07/18 05:37:56;;;;;;;8.65;4.90;;;15.20;99.90;;;;;;5007362;28;20045;-48
2023/07/18 05:40:22;;;;;;;11.70;4.97;;;15.30;99.90;;;;;;5007308;28;20367;-48
2023/07/18 05:42:47;;;;;;;10.07;4.57;;;15.40;99.90;;;;;;5006256;28;20030;-47
2023/07/18 05:45:13;;;;;;;9.60;5.53;;;15.50;99.90;;;;;;5022694;28;20056;-48
2023/07/18 05:47:38;;;;;;;9.77;4.57;;;15.60;99.90;;;;;;5006301;28;20419;-48
2023/07/18 05:50:05;;;;;;;6.72;4.65;;;15.60;99.90;;;;;;5006987;28;20466;-48
2023/07/18 05:52:31;;;;;;;15.20;5.35;;;15.60;99.90;;;;;;5007519;28;20084;-48
2023/07/18 05:54:56;;;;;;;10.23;5.22;;;15.60;99.90;;;;;;5007094;28;20445;-51
2023/07/18 05:57:22;;;;;;;9.07;4.97;;;15.70;99.90;;;;;;5000402;28;20169;-49
2023/07/18 05:59:48;;;;;;;8.60;4.25;;;15.70;99.90;;;;;;5006965;28;20022;-47
2023/07/18 06:02:15;;;;;;;10.00;4.47;;;15.80;99.90;;;;;;5006986;28;20513;-47
2023/07/18 06:04:40;;;;;;;8.90;4.68;;;15.80;99.90;;;;;;5006935;28;20030;-47
2023/07/18 06:07:06;;;;;;;9.05;4.68;;;15.90;99.90;;;;;;5006332;28;20030;-47
2023/07/18 06:09:32;;;;;;;14.98;4.95;;;15.90;99.90;;;;;;5006665;28;20030;-47
2023/07/18 06:11:57;;;;;;;8.77;5.32;;;15.90;99.90;;;;;;5006466;28;20109;-47
2023/07/18 06:14:23;;;;;;;10.18;5.72;;;15.80;99.90;;;;;;5006868;28;20030;-47
2023/07/18 06:16:48;;;;;;;10.18;4.45;;;15.80;99.90;;;;;;5012117;28;20050;-48
2023/07/18 06:19:14;;;;;;;11.32;4.75;;;15.80;99.90;;;;;;5006834;28;20049;-47
2023/07/18 06:21:40;;;;;;;10.00;5.50;;;15.80;99.90;;;;;;5005219;28;20100;-47
2023/07/18 06:24:06;;;;;;;9.43;4.20;;;15.80;99.90;;;;;;5005665;28;20026;-47
2023/07/18 06:26:32;;;;;;;12.15;5.55;;;15.80;99.90;;;;;;5005538;28;20340;-47
2023/07/18 06:28:57;;;;;;;13.43;4.90;;;15.90;99.90;;;;;;5003531;28;20109;-50
2023/07/18 06:31:23;;;;;;;16.05;5.68;;;15.90;99.90;;;;;;5005344;28;20038;-48
2023/07/18 06:33:48;;;;;;;10.98;4.93;;;15.90;99.90;;;;;;5005809;28;20014;-47
2023/07/18 06:36:15;;;;;;;11.45;5.43;;;16.00;99.90;;;;;;5006969;28;20077;-47
2023/07/18 06:38:40;;;;;;;10.20;5.07;;;16.00;99.90;;;;;;5007294;28;20030;-49
2023/07/18 06:41:06;;;;;;;6.90;4.45;;;16.10;99.90;;;;;;5006976;28;20298;-47
2023/07/18 06:43:32;;;;;;;13.93;5.15;;;16.20;99.90;;;;;;5006314;28;20501;-49
2023/07/18 06:45:58;;;;;;;11.25;5.78;;;16.20;99.90;;;;;;5006960;28;20018;-47
2023/07/18 06:48:24;;;;;;;12.45;5.13;;;16.30;99.90;;;;;;5007216;28;20487;-49
2023/07/18 06:50:51;;;;;;;9.00;5.05;;;16.30;99.90;;;;;;5006675;28;20021;-48
2023/07/18 06:53:19;;;;;;;10.15;4.25;;;16.40;99.90;;;;;;5006296;28;20667;-47
2023/07/18 06:55:46;;;;;;;10.52;5.07;;;16.50;99.90;;;;;;5006700;28;20022;-47
2023/07/18 06:58:12;;;;;;;13.32;5.38;;;16.60;99.90;;;;;;5006737;28;20018;-49
2023/07/18 07:00:39;;;;;;;8.10;4.85;;;16.60;99.90;;;;;;5006048;28;20550;-49
2023/07/18 07:03:06;;;;;;;14.07;4.72;;;16.70;99.90;;;;;;5005234;28;20065;-49
2023/07/18 07:05:38;;;;;;;9.25;4.63;;;16.80;99.90;;;;;;5006600;28;20025;-46
2023/07/18 07:08:08;;;;;;;16.67;5.63;;;16.90;99.90;;;;;;5006694;28;20056;-48
2023/07/18 07:10:38;;;;;;;11.90;5.00;;;17.00;99.90;;;;;;5006762;28;20030;-48
2023/07/18 07:13:03;;;;;;;9.10;4.97;;;17.00;99.90;;;;;;5006028;28;20014;-48
2023/07/18 07:15:29;;;;;;;13.00;5.55;;;17.00;99.90;;;;;;5006535;28;20446;-47
2023/07/18 07:17:54;;;;;;;10.88;5.43;;;17.20;99.90;;;;;;5006464;28;20214;-48
2023/07/18 07:20:20;;;;;;;12.23;4.45;;;17.30;99.90;;;;;;5010030;28;20026;-47
2023/07/18 07:22:47;;;;;;;6.72;4.28;;;17.40;99.90;;;;;;5009832;28;20029;-47
2023/07/18 07:25:14;;;;;;;7.20;4.50;;;17.50;99.90;;;;;;5010514;28;20061;-48
2023/07/18 07:27:44;;;;;;;7.03;3.97;;;17.60;99.90;;;;;;5008494;28;20515;-50
2023/07/18 07:30:15;;;;;;;8.77;4.23;;;17.70;99.90;;;;;;5010468;28;20029;-47
2023/07/18 07:32:43;;;;;;;8.85;3.88;;;17.80;99.90;;;;;;5009795;28;20265;-48
2023/07/18 07:35:09;;;;;;;8.80;4.13;;;17.90;99.90;;;;;;5009923;28;20089;-47
2023/07/18 07:37:36;;;;;;;9.82;3.60;;;18.00;99.90;;;;;;5025125;28;20117;-48
2023/07/18 07:40:07;;;;;;;7.93;4.00;;;18.10;99.90;;;;;;5025124;28;20033;-50
2023/07/18 07:42:32;;;;;;;6.10;3.33;;;18.20;99.90;;;;;;5010208;28;20026;-48
2023/07/18 07:44:58;;;;;;;12.43;4.43;;;18.30;99.90;;;;;;5010211;28;20089;-47
2023/07/18 07:47:23;;;;;;;10.85;3.75;;;18.40;99.90;;;;;;5009502;28;20033;-48
2023/07/18 07:49:49;;;;;;;10.52;3.08;;;18.50;99.90;;;;;;5006675;28;20743;-48
2023/07/18 07:52:14;;;;;;;5.05;2.92;;;18.60;99.90;;;;;;5019902;28;20030;-51
2023/07/18 07:54:40;;;;;;;8.25;3.58;;;18.80;99.90;;;;;;5006549;28;20414;-50
2023/07/18 07:57:06;;;;;;;6.10;3.03;;;19.00;99.90;;;;;;5003988;28;20026;-51
2023/07/18 07:59:32;;;;;;;10.23;3.47;;;19.10;99.90;;;;;;5009536;28;20036;-51
2023/07/18 08:01:57;;;;;;;6.88;3.40;;;19.30;99.90;;;;;;5005035;28;20030;-48
2023/07/18 08:04:23;;;;;;;7.35;2.97;;;19.40;99.90;;;;;;5024287;28;20044;-48
2023/07/18 08:06:48;;;;;;;6.70;3.38;;;19.50;99.90;;;;;;5024343;28;20034;-49
2023/07/18 08:09:15;;;;;;;11.35;3.35;;;19.60;99.90;;;;;;5009340;28;20040;-49
2023/07/18 08:11:40;;;;;;;6.38;2.45;;;19.70;99.90;;;;;;5008656;28;20483;-48
2023/07/18 08:14:07;;;;;;;8.13;2.78;;;19.80;99.90;;;;;;5020608;28;20032;-48
2023/07/18 08:16:32;;;;;;;6.97;2.47;;;20.00;99.90;;;;;;5009208;28;20014;-47
2023/07/18 08:18:58;;;;;;;8.95;2.55;;;20.10;99.90;;;;;;5024116;28;20302;-47
2023/07/18 08:21:24;;;;;;;6.50;2.58;;;20.40;99.90;;;;;;5000308;28;20076;-48
2023/07/18 08:23:50;;;;;;;6.80;2.25;;;20.70;99.90;;;;;;4989940;28;20372;-48
2023/07/18 08:26:15;;;;;;;8.23;2.53;;;21.00;99.90;;;;;;5004316;28;20045;-48
2023/07/18 08:28:41;;;;;;;4.57;2.65;;;21.60;99.10;;;;;;5003570;28;20026;-52
2023/07/18 08:31:06;;;;;;;8.18;2.67;;;22.90;98.60;;;;;;5018796;28;20034;-48
2023/07/18 08:33:32;;;;;;;3.53;2.03;;;24.30;94.40;;;;;;5003361;28;20057;-48
2023/07/18 08:35:57;;;;;;;3.47;2.17;;;25.60;92.40;;;;;;5003198;28;20275;-48
2023/07/18 08:38:23;;;;;;;5.57;2.55;;;26.70;86.10;;;;;;5004767;28;20475;-47
2023/07/18 08:40:49;;;;;;;7.68;2.17;;;27.40;79.10;;;;;;5007497;28;20415;-46
2023/07/18 08:43:18;;;;;;;6.93;4.10;;;28.20;78.20;;;;;;5007903;28;20391;-47
2023/07/18 08:45:44;;;;;;;7.05;3.65;;;28.60;76.80;;;;;;5023771;28;20025;-49
2023/07/18 08:48:13;;;;;;;5.25;2.03;;;29.50;73.40;;;;;;5007080;28;20356;-46
2023/07/18 08:50:40;;;;;;;4.00;2.07;;;29.40;70.10;;;;;;5003060;28;20439;-50
2023/07/18 08:53:06;;;;;;;6.18;1.88;;;30.10;69.60;;;;;;5007197;28;20014;-48
2023/07/18 08:55:31;;;;;;;5.72;2.00;;;30.60;67.90;;;;;;5007705;28;20044;-46
2023/07/18 08:57:58;;;;;;;4.93;1.65;;;31.30;65.10;;;;;;5007740;28;20022;-49
2023/07/18 09:00:25;;;;;;;5.70;1.92;;;31.70;62.70;;;;;;5006013;28;20403;-46
2023/07/18 09:02:50;;;;;;;4.90;1.75;;;32.10;64.00;;;;;;5020602;28;20553;-46
2023/07/18 09:05:29;;;;;;;7.30;2.30;;;31.90;61.70;;;;;;5006841;28;20037;-48
2023/07/18 09:07:56;;;;;;;3.60;1.52;;;32.40;62.90;;;;;;5007341;28;20061;-49
2023/07/18 09:10:22;;;;;;;6.32;1.92;;;32.40;59.30;;;;;;5005286;28;20037;-46
2023/07/18 09:12:47;;;;;;;3.38;1.80;;;32.60;58.80;;;;;;5006999;28;20017;-48
2023/07/18 09:15:20;;;;;;;2.97;2.00;;;33.30;58.70;;;;;;5005389;28;20030;-47
2023/07/18 09:18:06;;;;;;;4.45;2.22;;;33.60;58.20;;;;;;5007203;28;20379;-46
2023/07/18 09:20:32;;;;;;;3.55;1.65;;;33.40;56.40;;;;;;5007112;28;20030;-46
2023/07/18 09:23:00;;;;;;;4.43;2.30;;;33.30;56.20;;;;;;5006339;28;20119;-47
2023/07/18 09:25:26;;;;;;;3.15;1.80;;;32.90;58.10;;;;;;5004211;28;20034;-47
2023/07/18 09:27:56;;;;;;;7.88;1.88;;;32.80;58.20;;;;;;5006684;28;20101;-47
2023/07/18 09:30:32;;;;;;;4.10;1.50;;;33.50;57.80;;;;;;5007043;28;20052;-46
2023/07/18 09:32:58;;;;;;;3.05;1.70;;;33.30;54.90;;;;;;5004212;28;20364;-48
2023/07/18 09:35:27;;;;;;;4.28;1.60;;;33.20;56.30;;;;;;5004129;28;20030;-47
2023/07/18 09:37:52;;;;;;;5.30;1.80;;;33.50;55.80;;;;;;5006204;28;20073;-46
2023/07/18 09:40:18;;;;;;;1.90;1.35;;;33.60;56.30;;;;;;5006742;28;20450;-50
2023/07/18 09:42:47;;;;;;;3.35;1.80;;;33.80;55.80;;;;;;5005266;28;20033;-47
2023/07/18 09:45:14;;;;;;;2.45;1.45;;;34.50;54.00;;;;;;5006445;28;20105;-50
2023/07/18 09:47:41;;;;;;;3.38;1.40;;;34.60;53.80;;;;;;5021799;28;20057;-50
2023/07/18 09:50:12;;;;;;;3.03;1.40;;;34.80;54.90;;;;;;5005072;28;20038;-46
2023/07/18 09:52:49;;;;;;;4.38;1.70;;;34.20;53.30;;;;;;5006165;28;20436;-46
2023/07/18 09:55:21;;;;;;;9.35;1.50;;;34.40;54.20;;;;;;5006149;28;20034;-48
2023/07/18 09:57:49;;;;;;;5.13;1.45;;;34.50;53.00;;;;;;5006561;28;20072;-47
2023/07/18 10:00:15;;;;;;;3.97;1.50;;;34.80;52.80;;;;;;5006459;28;20343;-46
2023/07/18 10:02:42;;;;;;;3.90;1.55;;;34.80;51.20;;;;;;5005893;28;20479;-47
2023/07/18 10:05:14;;;;;;;3.55;1.40;;;35.10;52.60;;;;;;5004113;28;20269;-48
2023/07/18 10:07:40;;;;;;;4.03;1.35;;;35.50;52.50;;;;;;5005621;28;20121;-47
2023/07/18 10:10:10;;;;;;;3.35;1.42;;;35.40;51.10;;;;;;5004400;28;20511;-46
2023/07/18 10:12:56;;;;;;;3.92;2.00;;;35.90;51.10;;;;;;5005434;28;20038;-47
2023/07/18 10:15:22;;;;;;;2.78;1.25;;;36.40;50.50;;;;;;5015615;28;20033;-50
2023/07/18 10:17:49;;;;;;;3.10;1.33;;;36.30;50.40;;;;;;5006033;28;20022;-49
2023/07/18 10:20:31;;;;;;;4.20;1.40;;;36.80;50.50;;;;;;5006406;28;20553;-49
2023/07/18 10:22:58;;;;;;;2.78;1.35;;;36.60;49.10;;;;;;5020918;28;20286;-48
2023/07/18 10:25:31;;;;;;;2.05;1.40;;;35.90;49.20;;;;;;5005776;28;20037;-47
2023/07/18 10:27:58;;;;;;;3.70;1.20;;;35.10;49.80;;;;;;5005351;28;20033;-48
2023/07/18 10:30:35;;;;;;;2.47;1.70;;;35.70;52.40;;;;;;5006308;28;20046;-46
2023/07/18 10:33:03;;;;;;;3.78;1.40;;;35.80;51.20;;;;;;5003798;28;20014;-49
2023/07/18 10:35:29;;;;;;;2.45;1.38;;;36.40;50.30;;;;;;4996755;28;20053;-47
2023/07/18 10:38:06;;;;;;;2.35;1.23;;;35.90;48.80;;;;;;5015818;28;20022;-46
2023/07/18 10:40:43;;;;;;;1.75;1.10;;;35.40;48.90;;;;;;5005302;28;20030;-48
2023/07/18 10:43:20;;;;;;;4.00;1.20;;;35.70;48.50;;;;;;5001847;28;20124;-48
2023/07/18 10:45:45;;;;;;;3.25;1.30;;;35.80;49.00;;;;;;5005855;28;20025;-47
2023/07/18 10:48:12;;;;;;;2.38;1.20;;;36.50;48.40;;;;;;5005899;28;20026;-46
2023/07/18 10:50:38;;;;;;;1.67;1.10;;;37.00;47.70;;;;;;5020734;28;20704;-47
2023/07/18 10:53:03;;;;;;;4.18;1.15;;;36.50;45.50;;;;;;5020467;28;20030;-48
2023/07/18 10:55:29;;;;;;;4.60;1.52;;;36.80;48.90;;;;;;5007321;28;20037;-48
2023/07/18 10:57:55;;;;;;;2.53;1.20;;;36.00;47.70;;;;;;5008774;28;20044;-46
2023/07/18 11:00:24;;;;;;;1.48;1.23;;;36.10;47.80;;;;;;5009404;28;20096;-49
2023/07/18 11:02:50;;;;;;;;;;;36.60;47.50;;;;;;5009445;28;20022;-47
2023/07/18 11:05:16;;;;;;;1.95;1.15;;;37.20;47.90;;;;;;5009237;28;20429;-49
2023/07/18 11:07:43;;;;;;;2.95;1.33;;;37.20;46.50;;;;;;5009115;28;20042;-49
2023/07/18 11:10:09;;;;;;;3.28;1.60;;;36.60;47.90;;;;;;5007764;28;20034;-49
2023/07/18 11:12:35;;;;;;;4.28;1.73;;;34.80;48.10;;;;;;5008837;28;20026;-48
2023/07/18 11:15:06;;;;;;;3.05;1.30;;;33.60;49.30;;;;;;5008975;28;20527;-49
2023/07/18 11:17:32;;;;;;;3.53;1.52;;;33.80;49.10;;;;;;5010906;28;20030;-48
2023/07/18 11:19:57;;;;;;;2.03;1.10;;;33.70;47.70;;;;;;5009347;28;20136;-48
2023/07/18 11:22:24;;;;;;;2.63;1.48;;;34.30;50.00;;;;;;5008809;28;20034;-51
2023/07/18 11:24:54;;;;;;;1.42;0.90;;;35.10;47.00;;;;;;5009066;28;20033;-49
2023/07/18 11:27:27;;;;;;;4.15;1.45;;;34.30;46.70;;;;;;5009362;28;20021;-50
2023/07/18 11:30:08;;;;;;;3.15;1.20;;;34.40;48.10;;;;;;5009149;28;20475;-49
2023/07/18 11:32:45;;;;;;;1.92;1.30;;;33.70;47.10;;;;;;5008777;28;20516;-48
2023/07/18 11:35:17;;;;;;;2.60;1.30;;;33.00;48.50;;;;;;5009223;28;20037;-49
2023/07/18 11:37:43;;;;;;;3.90;1.48;;;33.10;50.30;;;;;;5009519;28;20463;-47
2023/07/18 11:40:18;;;;;;;3.38;1.40;;;32.90;49.70;;;;;;5008949;28;20022;-49
2023/07/18 11:42:52;;;;;;;2.33;1.10;;;32.50;49.40;;;;;;5008689;28;20026;-49
2023/07/18 11:45:19;;;;;;;3.30;1.40;;;31.30;51.00;;;;;;5009315;28;20061;-49
2023/07/18 11:47:55;;;;;;;2.25;1.50;;;31.50;53.80;;;;;;5009228;28;20021;-47
2023/07/18 11:50:25;;;;;;;3.53;1.73;;;32.10;51.00;;;;;;5008880;28;20026;-47
2023/07/18 11:52:51;;;;;;;1.77;1.60;;;32.00;50.60;;;;;;5008201;28;20025;-48
2023/07/18 11:55:19;;;;;;;4.32;1.48;;;30.90;52.20;;;;;;5008598;28;20088;-47
2023/07/18 11:57:45;;;;;;;1.95;1.35;;;31.00;53.10;;;;;;5008177;28;20459;-50
2023/07/18 12:00:12;;;;;;;2.13;1.30;;;32.00;54.90;;;;;;5008613;28;20030;-47
2023/07/18 12:02:38;;;;;;;3.40;1.30;;;32.80;52.60;;;;;;5008206;28;20030;-50
2023/07/18 12:05:05;;;;;;;1.88;1.40;;;33.00;52.80;;;;;;5007666;28;20033;-48
2023/07/18 12:07:31;;;;;;;2.55;1.00;;;32.10;51.40;;;;;;5008353;28;20064;-47
2023/07/18 12:09:57;;;;;;;2.55;1.25;;;31.80;51.60;;;;;;5006481;28;20025;-46
2023/07/18 12:12:23;;;;;;;2.45;1.13;;;31.10;52.30;;;;;;5008571;28;20445;-48
2023/07/18 12:14:49;;;;;;;1.83;1.20;;;30.20;53.10;;;;;;5008325;28;20434;-48
2023/07/18 12:17:15;;;;;;;1.98;1.10;;;29.70;52.90;;;;;;5008844;28;20097;-49
2023/07/18 12:19:41;;;;;;;1.45;1.15;;;29.10;53.30;;;;;;5008816;28;20452;-48
2023/07/18 12:22:06;;;;;;;4.40;1.60;;;29.50;55.40;;;;;;5007444;28;20112;-46
2023/07/18 12:24:32;;;;;;;3.28;2.80;;;29.70;54.50;;;;;;5008667;28;20105;-46
2023/07/18 12:26:57;;;;;;;2.33;1.20;;;30.10;53.90;;;;;;5008175;28;20576;-49
2023/07/18 12:29:23;;;;;;;5.20;1.42;;;29.40;52.10;;;;;;5008632;28;20186;-47
2023/07/18 12:31:51;;;;;;;4.28;1.40;;;28.30;53.30;;;;;;5007873;28;20471;-47
2023/07/18 12:34:17;;;;;;;3.45;1.48;;;27.70;56.00;;;;;;5008382;28;20022;-47
2023/07/18 12:36:44;;;;;;;3.38;1.52;;;27.40;57.30;;;;;;5021558;28;20022;-47
2023/07/18 12:39:10;;;;;;;2.58;1.15;;;28.00;58.50;;;;;;5007755;28;20022;-50
2023/07/18 12:41:36;;;;;;;3.33;1.35;;;28.70;58.10;;;;;;5007444;28;20037;-46